Cloudland, Georgia
Current Conditions -  °F | °C
As of 12:35 PM on Thursday 30 Oct 2014 (Local Time) from K4A9 Reporting Station
Clear Clear  
Wind Chill: 59°   Ceiling: Unl
Heat Index: 59°   Visibility: 10mi
Dew Point: 37°   Wind: 3mph
Humidity: 45%   Direction: 290°WNW
Pressure: 30.1"   Gusts: NA
Location:  34.6147°N, 85.4647°W
Report Text: K4A9 301635Z AUTO 29003KT 10SM CLR 15/03 A3010 RMK AO2
Loading
Personal Weather Stations






























Interactive Weather Map
Tropical Storm Tracking
New forecast layout! Learn more

10-Day Weather Forecast

Advertisements
Track Severe Weather on mobile